WetterOnline ( https://www.wetteronline.de )

Wetter aktuell Regensburg

Aktuelles Wetter: Regensburg/Oberhub (371m)

6-stündlich | Neueste Meldungen
Ortszeit Temperatur Wetter
Sa, 20.04. 2:00 4.6° C bedeckt
Fr, 19.04. 20:00 4.2° C leichter Regen
Fr, 19.04. 14:00 5.8° C leichter Regen
Fr, 19.04. 8:00 4.3° C bewölkt
Fr, 19.04. 2:00 3.4° C bedeckt
Do, 18.04. 20:00 6.1° C bewölkt
Do, 18.04. 14:00 11.0° C wolkig
Do, 18.04. 8:00 3.7° C bedeckt
Ortszeit Temperatur Wetter
Sa, 20.04. 6:30 3.7° C Sprühregen
Sa, 20.04. 6:20 3.7° C Sprühregen
Sa, 20.04. 6:10 3.7° C Sprühregen
Sa, 20.04. 6:00 3.9° C leichter Regen
Sa, 20.04. 5:50 3.9° C leichter Regen
Sa, 20.04. 5:40 3.9° C leichter Regen
Sa, 20.04. 5:30 3.9° C Sprühregen
Sa, 20.04. 5:00 3.9° C leichter Regen
Sa, 20.04. 4:30 4.2° C Sprühregen
Sa, 20.04. 4:00 4.2° C Sprühregen
Sa, 20.04. 3:30 4.3° C bedeckt
Ortszeit Relative Feuchte Sichtweite
Sa, 20.04. 2:00 87% 60 km
Fr, 19.04. 20:00 93% 21 km
Fr, 19.04. 14:00 85% 11 km
Fr, 19.04. 8:00 86% 19 km
Fr, 19.04. 2:00 88% 50 km
Do, 18.04. 20:00 77% >70 km
Do, 18.04. 14:00 55% 45 km
Do, 18.04. 8:00 91% 29 km
Ortszeit Relative Feuchte Sichtweite
Sa, 20.04. 6:30 89% 40 km
Sa, 20.04. 6:20 89% -
Sa, 20.04. 6:10 89% -
Sa, 20.04. 6:00 91% 18 km
Sa, 20.04. 5:50 91% -
Sa, 20.04. 5:40 89% -
Sa, 20.04. 5:30 90% 35 km
Sa, 20.04. 5:00 89% 25 km
Sa, 20.04. 4:30 88% 23 km
Sa, 20.04. 4:00 91% 29 km
Sa, 20.04. 3:30 88% 45 km
Ortszeit Niederschlagsmenge Niederschlagsart
Sa, 20.04. 2:00 0.9 l/m2 in 6 Std. Regen
Fr, 19.04. 20:00 6 l/m2 in 12 Std. Regen
Fr, 19.04. 14:00 0.4 l/m2 in 6 Std. Regen
Fr, 19.04. 8:00 0.1 l/m2 in 12 Std. Regen
Fr, 19.04. 2:00 0.1 l/m2 in 6 Std. Regen
Do, 18.04. 20:00 0.5 l/m2 in 12 Std. Regen
Do, 18.04. 14:00 0.1 l/m2 in 6 Std. Regen
Do, 18.04. 8:00 1 l/m2 in 12 Std. Regen
Ortszeit Niederschlagsmenge Niederschlagsart
Sa, 20.04. 6:30 0.1 l/m2 in 30 Min -
Sa, 20.04. 6:20 keine Meldung -
Sa, 20.04. 6:10 keine Meldung -
Sa, 20.04. 6:00 0.1 l/m2 in 1 Std. Regen
Sa, 20.04. 5:50 keine Meldung -
Sa, 20.04. 5:40 keine Meldung -
Sa, 20.04. 5:30 <0.05 l/m2 in 30 Min -
Sa, 20.04. 5:00 0.2 l/m2 in 1 Std. Regen
Sa, 20.04. 4:30 0.1 l/m2 in 30 Min -
Sa, 20.04. 4:00 0.2 l/m2 in 1 Std. Regen
Sa, 20.04. 3:30 <0.05 l/m2 in 30 Min Schneeregen
Ortszeit Stärke Spitze Richtung
km/h Bft. km/h Grad Sektor
Sa, 20.04. 2:00 19 3 44 270° W
Fr, 19.04. 20:00 14 3 54 240° SW
Fr, 19.04. 14:00 19 3 50 240° SW
Fr, 19.04. 8:00 11 2 22 220° SW
Fr, 19.04. 2:00 4 1 22 120° SO
Do, 18.04. 20:00 4 1 32 270° W
Do, 18.04. 14:00 9 2 26 20° N
Do, 18.04. 8:00 4 1 14 320° NW
Ortszeit Stärke Spitze Richtung
km/h Bft. km/h Grad Sektor
Sa, 20.04. 6:30 13 3 35 280° W
Sa, 20.04. 6:20 13 3 - 280° W
Sa, 20.04. 6:10 14 3 - 280° W
Sa, 20.04. 6:00 13 3 37 280° W
Sa, 20.04. 5:50 13 3 - 280° W
Sa, 20.04. 5:40 14 3 - 280° W
Sa, 20.04. 5:30 17 3 37 280° W
Sa, 20.04. 5:00 20 4 35 280° W
Sa, 20.04. 4:30 20 4 35 270° W
Sa, 20.04. 4:00 19 3 37 270° W
Sa, 20.04. 3:30 18 3 36 270° W
Ortszeit Untergrenze Bedeckung Gattung
total tief tief mittel hoch
Sa, 20.04. 2:00 570 m 8/8 8/8 - - -
Fr, 19.04. 20:00 360 m 8/8 8/8 - - -
Fr, 19.04. 14:00 570 m 7/8 7/8 - - -
Fr, 19.04. 8:00 300 m 8/8 7/8 - - -
Fr, 19.04. 2:00 1500 m 8/8 8/8 - - -
Do, 18.04. 20:00 1440 m 7/8 7/8 - - -
Do, 18.04. 14:00 1200 m 8/8 2/8 - - -
Do, 18.04. 8:00 180 m 8/8 8/8 - - -
Ortszeit Bedeckungsgrad in Achtel und Wolkenuntergrenze
Sa, 20.04. 6:30 3(450m) 7(1050m) 8(2700m)
Sa, 20.04. 6:20 3(450m) 7(1050m) 8(2700m)
Sa, 20.04. 6:10 8
Sa, 20.04. 6:00 7(540m) 8(990m) 8(2400m)
Sa, 20.04. 5:50 7(540m) 8(990m) 8(2400m)
Sa, 20.04. 5:40 8
Sa, 20.04. 5:30 7(570m) 7(1500m) 7(3300m)
Sa, 20.04. 5:00 5(540m) 6(1500m) 7(1800m)
Sa, 20.04. 4:30 7(570m) 8(1470m) 8(1500m)
Sa, 20.04. 4:00 6(540m) 8(780m) 8(1500m)
Sa, 20.04. 3:30 7(630m) 8(2700m) 8(3300m)
Ortszeit Luftdruck NN (hPa) Tendenz (hPa in 3 Std.)
Sa, 20.04. 2:00 1010 + 1,1
Fr, 19.04. 20:00 1008 - 1,2
Fr, 19.04. 14:00 1011 - 3,0
Fr, 19.04. 8:00 1017 - 1,1
Fr, 19.04. 2:00 1020 - 0,2
Do, 18.04. 20:00 1018 + 1,2
Do, 18.04. 14:00 1015 + 0,5
Do, 18.04. 8:00 1014 + 1,4
Ortszeit Luftdruck NN (hPa) Tendenz (hPa in 3 Std.)
Sa, 20.04. 6:30 1011 + 1,4
Sa, 20.04. 6:20 1011 keine Meldung
Sa, 20.04. 6:10 1011 keine Meldung
Sa, 20.04. 6:00 1011 + 1,0
Sa, 20.04. 5:50 1011 keine Meldung
Sa, 20.04. 5:40 1011 keine Meldung
Sa, 20.04. 5:30 1011 + 0,8
Sa, 20.04. 5:00 1010 + 0,7
Sa, 20.04. 4:30 1010 + 0,5
Sa, 20.04. 4:00 1010 + 0,4
Sa, 20.04. 3:30 1010 + 0,5
Ortszeit Schneehöhe (cm)
Sa, 20.04. 2:00 0
Fr, 19.04. 20:00 0
Fr, 19.04. 14:00 0
Fr, 19.04. 8:00 0
Fr, 19.04. 2:00 0
Do, 18.04. 20:00 0
Do, 18.04. 14:00 0
Do, 18.04. 8:00 0
Ortszeit Schneehöhe (cm)
Sa, 20.04. 6:30 0
Sa, 20.04. 6:20 0
Sa, 20.04. 6:10 -
Sa, 20.04. 6:00 0
Sa, 20.04. 5:50 0
Sa, 20.04. 5:40 -
Sa, 20.04. 5:30 0
Sa, 20.04. 5:00 0
Sa, 20.04. 4:30 0
Sa, 20.04. 4:00 0
Sa, 20.04. 3:30 0
Link zu dieser Seite / Seite empfehlen

Das Wetter in ...